createdAt,value
2018-08-16T00:01:44.192Z,34.90
2018-08-16T00:04:12.719Z,29.03
2018-08-16T00:06:41.491Z,29.17
2018-08-16T00:09:10.458Z,27.60
2018-08-16T00:11:38.950Z,30.07
2018-08-16T00:14:07.623Z,32.73
2018-08-16T00:16:36.223Z,28.27
2018-08-16T00:19:04.989Z,32.30
2018-08-16T00:21:33.543Z,28.37
2018-08-16T00:24:02.209Z,31.30
2018-08-16T00:26:30.720Z,31.07
2018-08-16T00:28:59.237Z,30.80
2018-08-16T00:31:27.876Z,29.73
2018-08-16T00:33:56.586Z,35.17
2018-08-16T00:36:25.071Z,30.10
2018-08-16T00:38:53.606Z,32.27
2018-08-16T00:41:22.249Z,32.83
2018-08-16T00:43:50.782Z,36.43
2018-08-16T00:46:19.333Z,35.93
2018-08-16T00:48:47.843Z,37.70
2018-08-16T00:51:16.574Z,38.00
2018-08-16T00:53:45.108Z,37.27
2018-08-16T00:56:13.598Z,37.17
2018-08-16T00:58:42.128Z,35.80
2018-08-16T01:01:10.623Z,37.23
2018-08-16T01:03:39.180Z,37.93
2018-08-16T01:06:07.695Z,40.07
2018-08-16T01:08:36.259Z,37.53
2018-08-16T01:11:04.906Z,37.43
2018-08-16T01:13:33.456Z,36.10
2018-08-16T01:16:02.021Z,37.47
2018-08-16T01:18:30.589Z,38.07
2018-08-16T01:20:59.329Z,35.90
2018-08-16T01:23:27.980Z,40.43
2018-08-16T01:25:56.588Z,37.63
2018-08-16T01:28:25.661Z,40.03
2018-08-16T01:30:54.189Z,38.63
2018-08-16T01:33:22.855Z,38.60
2018-08-16T01:35:51.366Z,41.10
2018-08-16T01:38:19.935Z,38.63
2018-08-16T01:40:48.461Z,39.57
2018-08-16T01:43:16.995Z,39.07
2018-08-16T01:45:45.543Z,40.90
2018-08-16T01:48:14.351Z,36.00
2018-08-16T01:50:43.205Z,38.97
2018-08-16T01:53:11.984Z,35.33
2018-08-16T01:55:40.497Z,35.93
2018-08-16T01:58:09.062Z,41.17
2018-08-16T02:00:37.618Z,38.70
2018-08-16T02:03:06.808Z,39.13
2018-08-16T02:05:35.544Z,36.27
2018-08-16T02:08:04.106Z,36.70
2018-08-16T02:10:32.745Z,32.27
2018-08-16T02:13:01.508Z,37.23
2018-08-16T02:15:30.101Z,38.60
2018-08-16T02:17:58.713Z,38.47
2018-08-16T02:20:27.303Z,37.07
2018-08-16T02:22:55.926Z,33.63
2018-08-16T02:25:25.803Z,34.90
2018-08-16T02:27:54.429Z,34.67
2018-08-16T02:30:22.958Z,38.93
2018-08-16T02:32:51.483Z,35.33
2018-08-16T02:35:19.952Z,34.20
2018-08-16T02:37:48.436Z,35.00
2018-08-16T02:40:17.046Z,38.33
2018-08-16T02:42:45.523Z,36.03
2018-08-16T02:45:14.067Z,34.67
2018-08-16T02:47:42.575Z,36.30
2018-08-16T02:50:11.076Z,38.60
2018-08-16T02:52:39.993Z,38.00
2018-08-16T02:55:08.876Z,36.57
2018-08-16T02:57:37.417Z,38.13
2018-08-16T03:00:07.622Z,38.57
2018-08-16T03:02:36.107Z,38.70
2018-08-16T03:05:05.016Z,37.87
2018-08-16T03:07:33.630Z,37.33
2018-08-16T03:10:02.341Z,46.73
2018-08-16T03:12:30.876Z,40.63
2018-08-16T03:14:59.429Z,40.70
2018-08-16T03:17:27.940Z,45.80
2018-08-16T03:19:56.501Z,39.07
2018-08-16T03:22:25.377Z,41.17
2018-08-16T03:24:53.850Z,39.70
2018-08-16T03:27:22.362Z,42.87
2018-08-16T03:29:51.043Z,38.93
2018-08-16T03:32:19.518Z,41.03
2018-08-16T03:34:47.980Z,39.27
2018-08-16T03:37:17.583Z,42.43
2018-08-16T03:39:46.284Z,38.13
2018-08-16T03:42:16.084Z,40.27
2018-08-16T03:44:44.874Z,38.97
2018-08-16T03:47:13.502Z,44.10
2018-08-16T03:49:42.080Z,42.93
2018-08-16T03:52:10.597Z,41.13
2018-08-16T03:54:39.107Z,40.07
2018-08-16T03:57:07.686Z,36.57
2018-08-16T03:59:36.293Z,43.37
2018-08-16T04:02:04.912Z,42.20
2018-08-16T04:04:34.132Z,43.97
2018-08-16T04:07:02.867Z,38.20
2018-08-16T04:09:31.405Z,40.13
2018-08-16T04:11:59.901Z,38.43
2018-08-16T04:14:28.429Z,38.23
2018-08-16T04:16:57.107Z,40.10
2018-08-16T04:19:25.643Z,37.93
2018-08-16T04:21:54.157Z,37.83
2018-08-16T04:24:22.670Z,40.13
2018-08-16T04:26:51.176Z,36.83
2018-08-16T04:29:19.717Z,37.57
2018-08-16T04:31:48.205Z,37.63
2018-08-16T04:34:18.243Z,36.13
2018-08-16T04:36:46.722Z,37.57
2018-08-16T04:39:15.351Z,35.10
2018-08-16T04:41:44.053Z,35.03
2018-08-16T04:44:12.466Z,38.13
2018-08-16T04:46:41.039Z,37.23
2018-08-16T04:49:09.519Z,32.27
2018-08-16T04:51:38.037Z,32.20
2018-08-16T04:54:06.605Z,35.97
2018-08-16T04:56:36.217Z,39.20
2018-08-16T04:59:04.790Z,33.57
2018-08-16T05:01:33.775Z,31.13
2018-08-16T05:04:02.511Z,31.13
2018-08-16T05:06:31.101Z,31.00
2018-08-16T05:08:59.723Z,30.03
2018-08-16T05:11:28.229Z,30.87
2018-08-16T05:13:56.754Z,29.83
2018-08-16T05:16:25.253Z,30.27
2018-08-16T05:18:54.064Z,31.07
2018-08-16T05:21:22.590Z,29.00
2018-08-16T05:23:51.195Z,31.83
2018-08-16T05:26:19.741Z,29.07
2018-08-16T05:28:48.393Z,27.90
2018-08-16T05:31:16.940Z,29.53
2018-08-16T05:33:45.451Z,30.10
2018-08-16T05:36:14.033Z,31.40
2018-08-16T05:38:42.580Z,27.73
2018-08-16T05:41:11.076Z,29.33
2018-08-16T05:43:39.677Z,28.30
2018-08-16T05:46:08.237Z,31.03
2018-08-16T05:48:36.840Z,26.73
2018-08-16T05:51:05.744Z,31.13
2018-08-16T05:53:34.329Z,30.03
2018-08-16T05:56:03.336Z,26.87
2018-08-16T05:58:31.937Z,25.20
2018-08-16T06:01:00.415Z,23.97
2018-08-16T06:03:29.057Z,24.67
2018-08-16T06:05:57.616Z,24.33
2018-08-16T06:08:26.237Z,23.63
2018-08-16T06:10:54.732Z,24.10
2018-08-16T06:13:23.245Z,23.77
2018-08-16T06:15:51.797Z,23.57
2018-08-16T06:18:20.332Z,21.33
2018-08-16T06:20:49.080Z,22.90
2018-08-16T06:23:18.710Z,22.27
2018-08-16T06:25:47.275Z,22.30
2018-08-16T06:28:15.857Z,26.47
2018-08-16T06:30:44.399Z,23.27
2018-08-16T06:33:13.106Z,21.17
2018-08-16T06:35:41.613Z,20.17
2018-08-16T06:38:10.125Z,20.67
2018-08-16T06:40:38.705Z,20.80
2018-08-16T06:43:07.256Z,19.53
2018-08-16T06:45:35.888Z,19.23
2018-08-16T06:48:04.741Z,17.60
2018-08-16T06:50:33.224Z,18.07
2018-08-16T06:53:01.771Z,17.63
2018-08-16T06:55:30.869Z,15.90
2018-08-16T06:57:59.418Z,14.70
2018-08-16T07:00:27.936Z,16.83
2018-08-16T07:02:56.447Z,15.33
2018-08-16T07:05:25.027Z,17.80
2018-08-16T07:07:53.552Z,17.20
2018-08-16T07:10:22.091Z,14.63
2018-08-16T07:12:50.656Z,17.33
2018-08-16T07:15:19.275Z,13.30
2018-08-16T07:17:47.905Z,18.03
2018-08-16T07:20:16.475Z,14.87
2018-08-16T07:22:44.973Z,12.60
2018-08-16T07:25:13.657Z,16.10
2018-08-16T07:27:42.289Z,12.00
2018-08-16T07:30:11.062Z,14.67
2018-08-16T07:32:40.228Z,9.97
2018-08-16T07:35:09.472Z,10.47
2018-08-16T07:37:38.058Z,11.20
2018-08-16T07:40:07.161Z,17.90
2018-08-16T07:42:35.754Z,12.40
2018-08-16T07:45:04.630Z,9.57
2018-08-16T07:47:33.236Z,9.43
2018-08-16T07:50:02.351Z,11.17
2018-08-16T07:52:31.009Z,10.23
2018-08-16T07:54:59.545Z,9.70
2018-08-16T07:57:28.185Z,12.43
2018-08-16T07:59:58.016Z,11.10
2018-08-16T08:02:26.701Z,11.40
2018-08-16T08:04:55.236Z,11.07
2018-08-16T08:07:23.964Z,11.83
2018-08-16T08:09:52.560Z,12.93
2018-08-16T08:12:21.031Z,11.83
2018-08-16T08:14:49.572Z,11.23
2018-08-16T08:17:18.121Z,10.63
2018-08-16T08:19:46.624Z,13.57
2018-08-16T08:22:15.107Z,12.73
2018-08-16T08:24:43.613Z,11.70
2018-08-16T08:27:12.213Z,11.67
2018-08-16T08:29:40.724Z,13.93
2018-08-16T08:32:09.312Z,14.03
2018-08-16T08:34:37.884Z,11.83
2018-08-16T08:37:17.410Z,11.57
2018-08-16T08:39:45.964Z,12.37
2018-08-16T08:42:14.509Z,10.03
2018-08-16T08:44:43.035Z,12.27
2018-08-16T08:47:11.765Z,11.57
2018-08-16T08:49:40.352Z,10.83
2018-08-16T08:52:08.827Z,9.90
2018-08-16T08:54:56.799Z,12.20
2018-08-16T08:57:37.176Z,9.93
2018-08-16T09:00:06.655Z,9.93
2018-08-16T09:02:35.297Z,8.70
2018-08-16T09:05:04.450Z,9.90
2018-08-16T09:07:32.990Z,9.47
2018-08-16T09:11:12.477Z,12.20
2018-08-16T09:13:53.057Z,9.83
2018-08-16T09:16:25.257Z,13.80
2018-08-16T09:18:53.770Z,12.33
2018-08-16T09:21:22.324Z,8.93
2018-08-16T09:23:51.210Z,13.30
2018-08-16T09:26:25.054Z,11.00
2018-08-16T09:28:53.616Z,10.20
2018-08-16T09:31:33.677Z,13.13
2018-08-16T09:34:13.346Z,9.70
2018-08-16T09:36:41.881Z,10.40
2018-08-16T09:39:10.504Z,11.43
2018-08-16T09:41:39.286Z,9.60
2018-08-16T09:44:07.795Z,10.80
2018-08-16T09:47:13.082Z,14.67
2018-08-16T09:49:45.729Z,10.03
2018-08-16T09:52:14.899Z,9.67
2018-08-16T09:54:43.503Z,9.83
2018-08-16T09:57:13.156Z,8.03
2018-08-16T09:59:41.722Z,7.77
2018-08-16T10:02:12.548Z,9.70
2018-08-16T10:04:41.020Z,12.90
2018-08-16T10:07:09.811Z,8.73
2018-08-16T10:09:38.330Z,8.27
2018-08-16T10:12:06.920Z,10.00
2018-08-16T10:14:35.551Z,8.93
2018-08-16T10:17:04.081Z,7.70
2018-08-16T10:19:32.639Z,8.13
2018-08-16T10:22:01.225Z,16.60
2018-08-16T10:24:29.854Z,9.73
2018-08-16T10:26:58.469Z,7.97
2018-08-16T10:29:27.196Z,10.03
2018-08-16T10:31:56.036Z,13.60
2018-08-16T10:34:24.568Z,8.50
2018-08-16T10:36:53.309Z,7.87
2018-08-16T10:39:22.061Z,8.17
2018-08-16T10:41:50.638Z,8.50
2018-08-16T10:44:19.304Z,9.03
2018-08-16T10:46:47.940Z,8.10
2018-08-16T10:49:16.496Z,9.73
2018-08-16T10:51:44.993Z,7.73
2018-08-16T10:54:13.540Z,8.90
2018-08-16T10:56:42.508Z,7.40
2018-08-16T10:59:15.780Z,7.57
2018-08-16T11:01:44.283Z,7.33
2018-08-16T11:04:12.864Z,7.17
2018-08-16T11:06:41.626Z,6.63
2018-08-16T11:09:10.689Z,7.07
2018-08-16T11:11:39.877Z,9.33
2018-08-16T11:14:08.667Z,7.70
2018-08-16T11:16:37.208Z,7.83
2018-08-16T11:19:06.164Z,8.67
2018-08-16T11:21:34.784Z,9.03
2018-08-16T11:24:03.819Z,8.50
2018-08-16T11:26:37.645Z,8.37
2018-08-16T11:29:06.142Z,6.47
2018-08-16T11:31:34.705Z,6.20
2018-08-16T11:34:03.594Z,7.63
2018-08-16T11:36:32.134Z,8.53
2018-08-16T11:39:00.930Z,6.90
2018-08-16T11:41:29.762Z,6.63
2018-08-16T11:43:58.267Z,7.37
2018-08-16T11:46:26.788Z,8.40
2018-08-16T11:48:55.323Z,7.33
2018-08-16T11:51:23.888Z,6.90
2018-08-16T11:53:52.408Z,6.73
2018-08-16T11:56:20.899Z,7.57
2018-08-16T11:58:49.852Z,8.37
2018-08-16T12:01:18.841Z,8.97
2018-08-16T12:03:47.413Z,9.07
2018-08-16T12:06:15.915Z,10.10
2018-08-16T12:08:44.536Z,11.70
2018-08-16T12:11:13.089Z,9.70
2018-08-16T12:13:41.595Z,12.50
2018-08-16T12:16:10.333Z,7.53
2018-08-16T12:18:39.345Z,8.53
2018-08-16T12:21:08.300Z,9.67
2018-08-16T12:23:36.989Z,8.40
2018-08-16T12:26:05.528Z,8.60
2018-08-16T12:28:34.012Z,7.20
2018-08-16T12:31:02.924Z,9.73
2018-08-16T12:33:31.461Z,9.77
2018-08-16T12:35:59.998Z,8.13
2018-08-16T12:38:28.494Z,10.20
2018-08-16T12:40:57.257Z,8.67
2018-08-16T12:43:30.903Z,9.23
2018-08-16T12:45:59.721Z,9.37
2018-08-16T12:48:28.257Z,9.37
2018-08-16T12:50:56.767Z,9.40
2018-08-16T12:53:25.316Z,8.60
2018-08-16T12:55:53.949Z,9.20
2018-08-16T12:58:23.095Z,9.03
2018-08-16T13:00:51.623Z,9.67
2018-08-16T13:03:21.404Z,9.23
2018-08-16T13:05:50.194Z,9.63
2018-08-16T13:08:20.204Z,9.20
2018-08-16T13:10:48.854Z,9.03
2018-08-16T13:13:17.977Z,10.00
2018-08-16T13:15:46.525Z,10.40
2018-08-16T13:18:15.217Z,10.47
2018-08-16T13:20:44.188Z,10.47
2018-08-16T13:23:12.797Z,12.30
2018-08-16T13:25:41.305Z,11.57
2018-08-16T13:28:10.083Z,10.27
2018-08-16T13:30:38.678Z,10.93
2018-08-16T13:33:07.199Z,10.57
2018-08-16T13:35:35.797Z,11.60
2018-08-16T13:38:04.522Z,10.50
2018-08-16T13:40:33.058Z,9.83
2018-08-16T13:43:01.744Z,10.27
2018-08-16T13:45:30.306Z,9.87
2018-08-16T13:47:58.947Z,12.60
2018-08-16T13:50:27.508Z,10.63
2018-08-16T13:52:56.098Z,9.43
2018-08-16T13:55:24.777Z,12.67
2018-08-16T13:57:53.293Z,9.23
2018-08-16T14:00:21.844Z,9.03
2018-08-16T14:02:50.494Z,9.20
2018-08-16T14:05:19.058Z,9.23
2018-08-16T14:07:47.681Z,8.67
2018-08-16T14:10:16.351Z,8.77
2018-08-16T14:12:44.857Z,8.57
2018-08-16T14:15:13.478Z,8.37
2018-08-16T14:17:42.125Z,8.47
2018-08-16T14:20:11.108Z,10.90
2018-08-16T14:22:39.864Z,8.57
2018-08-16T14:25:08.478Z,7.93
2018-08-16T14:27:37.212Z,8.63
2018-08-16T14:30:06.776Z,7.87
2018-08-16T14:32:35.362Z,7.27
2018-08-16T14:35:03.976Z,8.13
2018-08-16T14:37:32.545Z,8.20
2018-08-16T14:40:01.707Z,7.37
2018-08-16T14:42:30.240Z,7.37
2018-08-16T14:44:58.719Z,8.87
2018-08-16T14:47:27.276Z,7.73
2018-08-16T14:49:55.818Z,8.73
2018-08-16T14:52:24.314Z,8.03
2018-08-16T14:54:52.949Z,10.00
2018-08-16T14:57:21.768Z,8.93
2018-08-16T14:59:50.366Z,8.70
2018-08-16T15:02:18.942Z,9.93
2018-08-16T15:04:47.532Z,9.90
2018-08-16T15:07:16.210Z,9.73
2018-08-16T15:09:44.775Z,9.83
2018-08-16T15:12:13.369Z,9.60
2018-08-16T15:14:41.976Z,9.73
2018-08-16T15:17:10.560Z,9.37
2018-08-16T15:19:39.148Z,9.07
2018-08-16T15:22:07.779Z,8.50
2018-08-16T15:24:36.364Z,9.80
2018-08-16T15:27:04.921Z,10.03
2018-08-16T15:29:33.519Z,10.90
2018-08-16T15:32:02.168Z,11.50
2018-08-16T15:34:30.657Z,9.50
2018-08-16T15:36:59.187Z,8.97
2018-08-16T15:39:27.704Z,9.77
2018-08-16T15:41:56.274Z,9.80
2018-08-16T15:44:24.865Z,9.70
2018-08-16T15:46:53.469Z,8.90
2018-08-16T15:49:22.173Z,9.10
2018-08-16T15:51:50.712Z,10.00
2018-08-16T15:54:19.478Z,10.87
2018-08-16T15:56:47.988Z,10.20
2018-08-16T15:59:16.552Z,10.27
2018-08-16T16:01:45.165Z,11.13
2018-08-16T16:04:13.828Z,11.23
2018-08-16T16:06:42.394Z,10.53
2018-08-16T16:09:11.737Z,11.20
2018-08-16T16:11:40.294Z,12.53
2018-08-16T16:14:08.856Z,11.33
2018-08-16T16:16:37.765Z,12.20
2018-08-16T16:19:06.380Z,11.73
2018-08-16T16:21:34.969Z,12.50
2018-08-16T16:24:03.521Z,12.33
2018-08-16T16:26:32.029Z,11.00
2018-08-16T16:29:00.684Z,12.00
2018-08-16T16:31:29.302Z,11.43
2018-08-16T16:33:58.371Z,12.67
2018-08-16T16:36:26.880Z,12.37
2018-08-16T16:38:55.999Z,11.70
2018-08-16T16:41:24.557Z,12.60
2018-08-16T16:43:53.058Z,13.27
2018-08-16T16:46:21.608Z,14.97
2018-08-16T16:48:50.137Z,12.77
2018-08-16T16:51:18.857Z,13.60
2018-08-16T16:53:47.405Z,15.57
2018-08-16T16:56:15.898Z,13.20
2018-08-16T16:58:44.811Z,14.47
2018-08-16T17:01:14.351Z,12.83
2018-08-16T17:03:43.186Z,12.90
2018-08-16T17:06:11.715Z,13.27
2018-08-16T17:08:40.290Z,13.80
2018-08-16T17:11:08.920Z,12.37
2018-08-16T17:13:37.702Z,11.87
2018-08-16T17:16:06.487Z,12.03
2018-08-16T17:18:35.085Z,12.13
2018-08-16T17:21:03.693Z,11.10
2018-08-16T17:23:32.401Z,11.93
2018-08-16T17:26:00.990Z,12.20
2018-08-16T17:28:29.502Z,14.23
2018-08-16T17:30:58.334Z,11.90
2018-08-16T17:33:26.953Z,11.33
2018-08-16T17:35:55.517Z,14.73
2018-08-16T17:38:24.115Z,10.83
2018-08-16T17:40:52.832Z,11.40
2018-08-16T17:43:21.367Z,10.23
2018-08-16T17:45:50.004Z,10.20
2018-08-16T17:48:18.909Z,11.60
2018-08-16T17:50:47.386Z,10.40
2018-08-16T17:53:15.932Z,11.23
2018-08-16T17:55:44.405Z,10.60
2018-08-16T17:58:13.248Z,11.37
2018-08-16T18:00:42.026Z,10.33
2018-08-16T18:03:10.556Z,11.00
2018-08-16T18:05:39.194Z,10.30
2018-08-16T18:08:07.896Z,10.33
2018-08-16T18:10:36.384Z,9.93
2018-08-16T18:13:05.126Z,10.03
2018-08-16T18:15:34.246Z,9.43
2018-08-16T18:18:02.766Z,11.03
2018-08-16T18:20:31.255Z,9.03
2018-08-16T18:23:00.256Z,9.67
2018-08-16T18:25:28.755Z,9.27
2018-08-16T18:27:57.744Z,9.87
2018-08-16T18:30:26.986Z,8.93
2018-08-16T18:32:55.570Z,9.60
2018-08-16T18:35:24.204Z,9.67
2018-08-16T18:37:52.733Z,11.30
2018-08-16T18:40:21.385Z,9.60
2018-08-16T18:42:49.874Z,9.43
2018-08-16T18:45:18.416Z,9.83
2018-08-16T18:47:47.337Z,11.43
2018-08-16T18:50:15.908Z,9.10
2018-08-16T18:52:44.791Z,8.93
2018-08-16T18:55:13.349Z,10.67
2018-08-16T18:57:41.852Z,9.87
2018-08-16T19:00:10.902Z,8.47
2018-08-16T19:02:39.607Z,8.50
2018-08-16T19:05:08.112Z,8.10
2018-08-16T19:07:36.650Z,8.57
2018-08-16T19:10:05.829Z,9.20
2018-08-16T19:12:34.862Z,9.03
2018-08-16T19:15:03.605Z,9.00
2018-08-16T19:17:32.244Z,9.87
2018-08-16T19:20:00.780Z,8.47
2018-08-16T19:22:29.310Z,9.77
2018-08-16T19:24:57.880Z,8.90
2018-08-16T19:27:26.435Z,8.93
2018-08-16T19:29:55.119Z,9.23
2018-08-16T19:32:23.617Z,10.30
2018-08-16T19:34:52.141Z,15.73
2018-08-16T19:37:20.617Z,9.17
2018-08-16T19:39:49.134Z,9.87
2018-08-16T19:42:17.736Z,10.50
2018-08-16T19:44:46.351Z,10.83
2018-08-16T19:47:14.855Z,11.20
2018-08-16T19:49:43.448Z,11.60
2018-08-16T19:52:11.966Z,10.90
2018-08-16T19:54:40.505Z,11.73
2018-08-16T19:57:09.242Z,10.30
2018-08-16T19:59:37.795Z,10.63
2018-08-16T20:02:06.435Z,12.60
2018-08-16T20:04:35.103Z,11.33
2018-08-16T20:07:03.872Z,10.87
2018-08-16T20:09:32.524Z,13.40
2018-08-16T20:12:01.384Z,11.67
2018-08-16T20:14:30.113Z,11.60
2018-08-16T20:17:01.448Z,13.33
2018-08-16T20:19:32.390Z,14.37
2018-08-16T20:22:00.931Z,12.70
2018-08-16T20:24:29.452Z,12.67
2018-08-16T20:27:00.848Z,12.37
2018-08-16T20:29:29.974Z,13.17
2018-08-16T20:31:58.494Z,14.07
2018-08-16T20:34:27.050Z,11.67
2018-08-16T20:36:55.569Z,12.30
2018-08-16T20:39:25.314Z,11.43
2018-08-16T20:41:54.040Z,11.37
2018-08-16T20:44:22.660Z,10.33
2018-08-16T20:46:51.273Z,9.37
2018-08-16T20:49:19.957Z,11.87
2018-08-16T20:51:48.559Z,9.23
2018-08-16T20:54:17.089Z,10.07
2018-08-16T20:56:49.055Z,8.10
2018-08-16T20:59:18.035Z,9.43
2018-08-16T21:01:46.571Z,8.97
2018-08-16T21:04:15.140Z,10.67
2018-08-16T21:06:43.957Z,10.57
2018-08-16T21:09:12.435Z,9.87
2018-08-16T21:11:41.033Z,8.73
2018-08-16T21:14:09.974Z,8.57
2018-08-16T21:16:38.457Z,11.70
2018-08-16T21:19:07.004Z,8.67
2018-08-16T21:21:35.522Z,10.60
2018-08-16T21:24:04.243Z,8.63
2018-08-16T21:26:32.797Z,9.40
2018-08-16T21:29:01.268Z,7.93
2018-08-16T21:31:29.745Z,8.07
2018-08-16T21:33:58.319Z,10.63
2018-08-16T21:36:26.848Z,8.20
2018-08-16T21:38:55.381Z,9.53
2018-08-16T21:41:23.887Z,7.63
2018-08-16T21:43:52.420Z,6.93
2018-08-16T21:46:21.176Z,8.27
2018-08-16T21:48:49.731Z,8.27
2018-08-16T21:51:18.239Z,11.07
2018-08-16T21:53:46.964Z,9.07
2018-08-16T21:56:15.510Z,10.10
2018-08-16T21:58:43.994Z,9.13
2018-08-16T22:01:12.548Z,9.90
2018-08-16T22:03:41.051Z,8.33
2018-08-16T22:06:10.664Z,9.20
2018-08-16T22:08:43.347Z,11.03
2018-08-16T22:11:11.972Z,9.80
2018-08-16T22:13:40.988Z,10.17
2018-08-16T22:16:16.005Z,9.07
2018-08-16T22:18:44.857Z,9.87
2018-08-16T22:21:13.398Z,11.20
2018-08-16T22:23:41.900Z,10.63
2018-08-16T22:26:10.675Z,11.07
2018-08-16T22:28:39.183Z,10.50
2018-08-16T22:31:07.872Z,11.33
2018-08-16T22:33:36.441Z,9.80
2018-08-16T22:36:05.081Z,11.07
2018-08-16T22:38:33.616Z,14.80
2018-08-16T22:41:02.222Z,11.50
2018-08-16T22:43:30.726Z,12.27
2018-08-16T22:45:59.244Z,9.53
2018-08-16T22:48:27.919Z,10.33
2018-08-16T22:50:56.546Z,9.90
2018-08-16T22:53:25.118Z,9.60
2018-08-16T22:55:53.642Z,10.97
2018-08-16T22:58:22.141Z,11.20
2018-08-16T23:00:50.809Z,13.27
2018-08-16T23:03:19.449Z,11.37
2018-08-16T23:05:47.950Z,12.43
2018-08-16T23:08:16.490Z,12.47
2018-08-16T23:10:45.027Z,12.97
2018-08-16T23:13:13.533Z,11.07
2018-08-16T23:15:42.120Z,13.53
2018-08-16T23:18:10.999Z,11.80
2018-08-16T23:20:39.510Z,11.17
2018-08-16T23:23:08.105Z,11.00
2018-08-16T23:25:36.667Z,14.03
2018-08-16T23:28:05.171Z,12.57
2018-08-16T23:30:33.688Z,13.10
2018-08-16T23:33:02.377Z,11.73
2018-08-16T23:35:31.276Z,13.03
2018-08-16T23:37:59.820Z,13.03
2018-08-16T23:40:28.361Z,11.47
2018-08-16T23:42:56.876Z,12.27
2018-08-16T23:45:25.424Z,11.43
2018-08-16T23:48:05.152Z,14.23
2018-08-16T23:50:33.795Z,12.23
2018-08-16T23:53:02.299Z,13.60
2018-08-16T23:55:32.025Z,14.10
2018-08-16T23:58:00.672Z,12.13
